Terminal Aerodrome Forecast
Issued by NWS

Home | Current Version | Previous Version | Text Only | Print | Product List | Glossary On
Versions: 1 2 3 4 5 6 7 8 9 10 11 12 13
841
FTUS42 KTBW 270531
TAFLAL
TAF
KLAL 270531Z 2706/2806 11003KT P6SM FEW050
     FM270900 VRB03KT 6SM BR FEW050
     FM271400 09005KT P6SM FEW035
     FM271800 07006KT P6SM SCT050
     FM280000 10004KT P6SM FEW060
      AMD NOT SKED 2706/2711=

USA.gov is the U.S. government's official web portal to all federal, state and local government web resources and services.